sensor_id;sensor_type;location;lat;lon;timestamp;temperature;humidity
60848;DHT22;46681;47.696;9.140;2023-03-01T00:00:25;8.10;42.90
60848;DHT22;46681;47.696;9.140;2023-03-01T00:02:51;8.10;42.90
60848;DHT22;46681;47.696;9.140;2023-03-01T00:05:17;8.10;42.90
60848;DHT22;46681;47.696;9.140;2023-03-01T00:07:43;8.10;43.30
60848;DHT22;46681;47.696;9.140;2023-03-01T00:10:09;8.10;43.00
60848;DHT22;46681;47.696;9.140;2023-03-01T00:12:35;8.10;43.00
60848;DHT22;46681;47.696;9.140;2023-03-01T00:15:03;8.20;43.00
60848;DHT22;46681;47.696;9.140;2023-03-01T00:17:29;8.20;43.00
60848;DHT22;46681;47.696;9.140;2023-03-01T00:19:54;8.20;43.00
60848;DHT22;46681;47.696;9.140;2023-03-01T00:22:26;8.20;43.00
60848;DHT22;46681;47.696;9.140;2023-03-01T00:24:52;8.20;43.00
60848;DHT22;46681;47.696;9.140;2023-03-01T00:27:21;8.20;43.00
60848;DHT22;46681;47.696;9.140;2023-03-01T00:29:48;8.30;43.00
60848;DHT22;46681;47.696;9.140;2023-03-01T00:32:13;8.30;43.00
60848;DHT22;46681;47.696;9.140;2023-03-01T00:34:41;8.20;43.00
60848;DHT22;46681;47.696;9.140;2023-03-01T00:37:08;8.30;43.00
60848;DHT22;46681;47.696;9.140;2023-03-01T00:39:34;8.30;43.00
60848;DHT22;46681;47.696;9.140;2023-03-01T00:42:06;8.30;42.90
60848;DHT22;46681;47.696;9.140;2023-03-01T00:44:32;8.30;43.00
60848;DHT22;46681;47.696;9.140;2023-03-01T00:46:58;8.30;42.90
60848;DHT22;46681;47.696;9.140;2023-03-01T00:49:23;8.30;43.00
60848;DHT22;46681;47.696;9.140;2023-03-01T00:51:50;8.30;43.00
60848;DHT22;46681;47.696;9.140;2023-03-01T00:54:16;8.30;43.10
60848;DHT22;46681;47.696;9.140;2023-03-01T00:56:42;8.30;43.10
60848;DHT22;46681;47.696;9.140;2023-03-01T00:59:13;8.30;43.10
60848;DHT22;46681;47.696;9.140;2023-03-01T01:01:39;8.30;43.10
60848;DHT22;46681;47.696;9.140;2023-03-01T01:04:15;8.30;43.10
60848;DHT22;46681;47.696;9.140;2023-03-01T01:06:46;8.30;43.10
60848;DHT22;46681;47.696;9.140;2023-03-01T01:09:15;8.30;43.10
60848;DHT22;46681;47.696;9.140;2023-03-01T01:11:50;8.30;43.10
60848;DHT22;46681;47.696;9.140;2023-03-01T01:14:18;8.30;43.00
60848;DHT22;46681;47.696;9.140;2023-03-01T01:16:50;8.30;43.00
60848;DHT22;46681;47.696;9.140;2023-03-01T01:19:17;8.40;43.10
60848;DHT22;46681;47.696;9.140;2023-03-01T01:21:43;8.30;43.00
60848;DHT22;46681;47.696;9.140;2023-03-01T01:24:16;8.30;43.00
60848;DHT22;46681;47.696;9.140;2023-03-01T01:26:42;8.30;43.10
60848;DHT22;46681;47.696;9.140;2023-03-01T01:29:17;8.40;43.10
60848;DHT22;46681;47.696;9.140;2023-03-01T01:31:43;8.40;43.10
60848;DHT22;46681;47.696;9.140;2023-03-01T01:34:17;8.40;43.10
60848;DHT22;46681;47.696;9.140;2023-03-01T01:36:44;8.40;43.00
60848;DHT22;46681;47.696;9.140;2023-03-01T01:39:16;8.40;43.00
60848;DHT22;46681;47.696;9.140;2023-03-01T01:41:41;8.40;43.00
60848;DHT22;46681;47.696;9.140;2023-03-01T01:44:27;8.40;43.00
60848;DHT22;46681;47.696;9.140;2023-03-01T01:49:56;8.40;43.00
60848;DHT22;46681;47.696;9.140;2023-03-01T01:52:25;8.40;43.10
60848;DHT22;46681;47.696;9.140;2023-03-01T01:57:33;8.40;43.00
60848;DHT22;46681;47.696;9.140;2023-03-01T02:00:09;8.40;43.00
60848;DHT22;46681;47.696;9.140;2023-03-01T02:02:37;8.50;43.00
60848;DHT22;46681;47.696;9.140;2023-03-01T02:07:42;8.50;43.00
60848;DHT22;46681;47.696;9.140;2023-03-01T02:10:26;8.50;43.00
60848;DHT22;46681;47.696;9.140;2023-03-01T02:12:55;8.50;43.10
60848;DHT22;46681;47.696;9.140;2023-03-01T02:15:23;8.50;43.10
60848;DHT22;46681;47.696;9.140;2023-03-01T02:17:49;8.50;43.10
60848;DHT22;46681;47.696;9.140;2023-03-01T02:20:44;8.50;43.10
60848;DHT22;46681;47.696;9.140;2023-03-01T02:23:14;8.50;43.10
60848;DHT22;46681;47.696;9.140;2023-03-01T02:26:06;8.50;43.10
60848;DHT22;46681;47.696;9.140;2023-03-01T02:28:37;8.50;43.10
60848;DHT22;46681;47.696;9.140;2023-03-01T02:31:08;8.50;43.10
60848;DHT22;46681;47.696;9.140;2023-03-01T02:33:39;8.50;43.20
60848;DHT22;46681;47.696;9.140;2023-03-01T02:36:09;8.50;43.10
60848;DHT22;46681;47.696;9.140;2023-03-01T02:38:35;8.50;43.10
60848;DHT22;46681;47.696;9.140;2023-03-01T02:41:02;8.50;43.10
60848;DHT22;46681;47.696;9.140;2023-03-01T02:43:33;8.50;43.30
60848;DHT22;46681;47.696;9.140;2023-03-01T02:46:18;8.50;43.30
60848;DHT22;46681;47.696;9.140;2023-03-01T02:48:50;8.50;43.20
60848;DHT22;46681;47.696;9.140;2023-03-01T02:56:57;8.50;43.30
60848;DHT22;46681;47.696;9.140;2023-03-01T02:59:27;8.50;43.30
60848;DHT22;46681;47.696;9.140;2023-03-01T03:01:55;8.50;43.30
60848;DHT22;46681;47.696;9.140;2023-03-01T03:04:21;8.50;43.20
60848;DHT22;46681;47.696;9.140;2023-03-01T03:06:50;8.50;43.20
60848;DHT22;46681;47.696;9.140;2023-03-01T03:09:16;8.50;43.30
60848;DHT22;46681;47.696;9.140;2023-03-01T03:11:43;8.50;43.30
60848;DHT22;46681;47.696;9.140;2023-03-01T03:14:16;8.50;43.70
60848;DHT22;46681;47.696;9.140;2023-03-01T03:16:49;8.50;43.40
60848;DHT22;46681;47.696;9.140;2023-03-01T03:19:16;8.50;43.40
60848;DHT22;46681;47.696;9.140;2023-03-01T03:21:52;8.50;43.40
60848;DHT22;46681;47.696;9.140;2023-03-01T03:24:18;8.50;43.80
60848;DHT22;46681;47.696;9.140;2023-03-01T03:26:45;8.50;43.40
60848;DHT22;46681;47.696;9.140;2023-03-01T03:29:10;8.50;43.40
60848;DHT22;46681;47.696;9.140;2023-03-01T03:31:36;8.50;43.40
60848;DHT22;46681;47.696;9.140;2023-03-01T03:34:02;8.50;43.40
60848;DHT22;46681;47.696;9.140;2023-03-01T03:36:30;8.50;43.50
60848;DHT22;46681;47.696;9.140;2023-03-01T03:38:57;8.40;43.50
60848;DHT22;46681;47.696;9.140;2023-03-01T03:41:27;8.40;43.50
60848;DHT22;46681;47.696;9.140;2023-03-01T03:43:53;8.40;43.50
60848;DHT22;46681;47.696;9.140;2023-03-01T03:46:19;8.40;43.50
60848;DHT22;46681;47.696;9.140;2023-03-01T03:48:51;8.40;43.50
60848;DHT22;46681;47.696;9.140;2023-03-01T03:51:18;8.40;44.00
60848;DHT22;46681;47.696;9.140;2023-03-01T03:53:45;8.40;43.50
60848;DHT22;46681;47.696;9.140;2023-03-01T03:56:11;8.50;43.50
60848;DHT22;46681;47.696;9.140;2023-03-01T03:58:38;8.40;43.50
60848;DHT22;46681;47.696;9.140;2023-03-01T04:01:07;8.40;43.60
60848;DHT22;46681;47.696;9.140;2023-03-01T04:03:35;8.40;43.60
60848;DHT22;46681;47.696;9.140;2023-03-01T04:06:02;8.40;43.60
60848;DHT22;46681;47.696;9.140;2023-03-01T04:08:28;8.40;43.60
60848;DHT22;46681;47.696;9.140;2023-03-01T04:11:01;8.40;43.60
60848;DHT22;46681;47.696;9.140;2023-03-01T04:13:28;8.40;43.60
60848;DHT22;46681;47.696;9.140;2023-03-01T04:15:54;8.40;43.60
60848;DHT22;46681;47.696;9.140;2023-03-01T04:18:23;8.50;43.60
60848;DHT22;46681;47.696;9.140;2023-03-01T04:20:50;8.50;43.50
60848;DHT22;46681;47.696;9.140;2023-03-01T04:23:18;8.50;43.50
60848;DHT22;46681;47.696;9.140;2023-03-01T04:25:57;8.50;43.50
60848;DHT22;46681;47.696;9.140;2023-03-01T04:28:38;8.50;43.50
60848;DHT22;46681;47.696;9.140;2023-03-01T04:31:07;8.50;43.50
60848;DHT22;46681;47.696;9.140;2023-03-01T04:33:33;8.50;43.50
60848;DHT22;46681;47.696;9.140;2023-03-01T04:36:07;8.60;43.60
60848;DHT22;46681;47.696;9.140;2023-03-01T04:38:39;8.60;43.50
60848;DHT22;46681;47.696;9.140;2023-03-01T04:41:10;8.60;43.90
60848;DHT22;46681;47.696;9.140;2023-03-01T04:43:45;8.60;44.00
60848;DHT22;46681;47.696;9.140;2023-03-01T04:46:16;8.60;43.90
60848;DHT22;46681;47.696;9.140;2023-03-01T04:48:47;8.70;43.80
60848;DHT22;46681;47.696;9.140;2023-03-01T04:51:13;8.70;43.70
60848;DHT22;46681;47.696;9.140;2023-03-01T04:53:46;8.70;43.50
60848;DHT22;46681;47.696;9.140;2023-03-01T04:56:14;8.70;43.50
60848;DHT22;46681;47.696;9.140;2023-03-01T04:58:40;8.70;43.50
60848;DHT22;46681;47.696;9.140;2023-03-01T05:01:13;8.70;43.40
60848;DHT22;46681;47.696;9.140;2023-03-01T05:03:47;8.70;43.40
60848;DHT22;46681;47.696;9.140;2023-03-01T05:06:20;8.70;43.30
60848;DHT22;46681;47.696;9.140;2023-03-01T05:08:45;8.70;43.30
60848;DHT22;46681;47.696;9.140;2023-03-01T05:11:13;8.70;43.30
60848;DHT22;46681;47.696;9.140;2023-03-01T05:13:39;8.70;43.30
60848;DHT22;46681;47.696;9.140;2023-03-01T05:16:09;8.70;43.30
60848;DHT22;46681;47.696;9.140;2023-03-01T05:18:38;8.80;43.30
60848;DHT22;46681;47.696;9.140;2023-03-01T05:21:12;8.70;43.30
60848;DHT22;46681;47.696;9.140;2023-03-01T05:23:39;8.80;43.30
60848;DHT22;46681;47.696;9.140;2023-03-01T05:26:08;8.80;43.60
60848;DHT22;46681;47.696;9.140;2023-03-01T05:28:39;8.80;43.70
60848;DHT22;46681;47.696;9.140;2023-03-01T05:31:06;8.90;43.80
60848;DHT22;46681;47.696;9.140;2023-03-01T05:33:31;8.90;43.70
60848;DHT22;46681;47.696;9.140;2023-03-01T05:36:03;8.90;43.60
60848;DHT22;46681;47.696;9.140;2023-03-01T05:38:29;8.90;43.50
60848;DHT22;46681;47.696;9.140;2023-03-01T05:40:55;8.90;43.40
60848;DHT22;46681;47.696;9.140;2023-03-01T05:43:22;8.90;43.40
60848;DHT22;46681;47.696;9.140;2023-03-01T05:45:49;8.90;43.30
60848;DHT22;46681;47.696;9.140;2023-03-01T05:48:16;8.90;43.30
60848;DHT22;46681;47.696;9.140;2023-03-01T05:50:45;8.90;43.30
60848;DHT22;46681;47.696;9.140;2023-03-01T05:53:16;8.90;43.40
60848;DHT22;46681;47.696;9.140;2023-03-01T05:55:43;8.90;43.40
60848;DHT22;46681;47.696;9.140;2023-03-01T05:58:15;8.90;43.30
60848;DHT22;46681;47.696;9.140;2023-03-01T06:00:43;8.90;43.30
60848;DHT22;46681;47.696;9.140;2023-03-01T06:03:19;8.90;43.30
60848;DHT22;46681;47.696;9.140;2023-03-01T06:05:46;8.80;43.30
60848;DHT22;46681;47.696;9.140;2023-03-01T06:08:25;8.80;43.40
60848;DHT22;46681;47.696;9.140;2023-03-01T06:10:55;8.80;43.40
60848;DHT22;46681;47.696;9.140;2023-03-01T06:13:22;8.70;43.40
60848;DHT22;46681;47.696;9.140;2023-03-01T06:15:48;8.70;43.40
60848;DHT22;46681;47.696;9.140;2023-03-01T06:18:17;8.70;43.40
60848;DHT22;46681;47.696;9.140;2023-03-01T06:20:55;8.70;43.50
60848;DHT22;46681;47.696;9.140;2023-03-01T06:23:24;8.70;43.50
60848;DHT22;46681;47.696;9.140;2023-03-01T06:25:56;8.60;43.60
60848;DHT22;46681;47.696;9.140;2023-03-01T06:28:21;8.60;43.60
60848;DHT22;46681;47.696;9.140;2023-03-01T06:30:52;8.60;44.00
60848;DHT22;46681;47.696;9.140;2023-03-01T06:33:24;8.60;43.60
60848;DHT22;46681;47.696;9.140;2023-03-01T06:35:50;8.60;43.70
60848;DHT22;46681;47.696;9.140;2023-03-01T06:38:16;8.50;43.70
60848;DHT22;46681;47.696;9.140;2023-03-01T06:40:43;8.50;43.70
60848;DHT22;46681;47.696;9.140;2023-03-01T06:43:11;8.50;43.90
60848;DHT22;46681;47.696;9.140;2023-03-01T06:45:37;8.50;44.10
60848;DHT22;46681;47.696;9.140;2023-03-01T06:48:05;8.50;44.00
60848;DHT22;46681;47.696;9.140;2023-03-01T06:50:39;8.50;44.00
60848;DHT22;46681;47.696;9.140;2023-03-01T06:53:05;8.40;44.00
60848;DHT22;46681;47.696;9.140;2023-03-01T06:55:41;8.40;44.00
60848;DHT22;46681;47.696;9.140;2023-03-01T06:58:11;8.40;44.00
60848;DHT22;46681;47.696;9.140;2023-03-01T07:00:44;8.40;44.00
60848;DHT22;46681;47.696;9.140;2023-03-01T07:03:30;8.40;44.00
60848;DHT22;46681;47.696;9.140;2023-03-01T07:06:10;8.40;43.90
60848;DHT22;46681;47.696;9.140;2023-03-01T07:08:49;8.40;44.00
60848;DHT22;46681;47.696;9.140;2023-03-01T07:11:15;8.40;43.70
60848;DHT22;46681;47.696;9.140;2023-03-01T07:13:42;8.40;44.00
60848;DHT22;46681;47.696;9.140;2023-03-01T07:16:09;8.40;44.00
60848;DHT22;46681;47.696;9.140;2023-03-01T07:18:49;8.40;44.00
60848;DHT22;46681;47.696;9.140;2023-03-01T07:21:19;8.40;43.90
60848;DHT22;46681;47.696;9.140;2023-03-01T07:23:49;8.50;46.10
60848;DHT22;46681;47.696;9.140;2023-03-01T07:26:17;8.60;45.70
60848;DHT22;46681;47.696;9.140;2023-03-01T07:28:42;8.60;44.90
60848;DHT22;46681;47.696;9.140;2023-03-01T07:31:08;8.60;44.70
60848;DHT22;46681;47.696;9.140;2023-03-01T07:33:34;8.50;44.50
60848;DHT22;46681;47.696;9.140;2023-03-01T07:36:07;8.50;44.50
60848;DHT22;46681;47.696;9.140;2023-03-01T07:38:37;8.50;44.40
60848;DHT22;46681;47.696;9.140;2023-03-01T07:41:09;8.50;44.40
60848;DHT22;46681;47.696;9.140;2023-03-01T07:43:35;8.50;44.30
60848;DHT22;46681;47.696;9.140;2023-03-01T07:46:02;8.50;44.40
60848;DHT22;46681;47.696;9.140;2023-03-01T07:48:31;8.50;44.40
60848;DHT22;46681;47.696;9.140;2023-03-01T07:51:05;8.50;44.30
60848;DHT22;46681;47.696;9.140;2023-03-01T07:53:32;8.50;44.30
60848;DHT22;46681;47.696;9.140;2023-03-01T07:56:12;8.50;44.20
60848;DHT22;46681;47.696;9.140;2023-03-01T07:58:41;8.50;44.20
60848;DHT22;46681;47.696;9.140;2023-03-01T08:01:15;8.60;44.20
60848;DHT22;46681;47.696;9.140;2023-03-01T08:03:42;8.60;44.20
60848;DHT22;46681;47.696;9.140;2023-03-01T08:06:21;8.60;44.10
60848;DHT22;46681;47.696;9.140;2023-03-01T08:08:46;8.60;44.10
60848;DHT22;46681;47.696;9.140;2023-03-01T08:11:13;8.60;44.10
60848;DHT22;46681;47.696;9.140;2023-03-01T08:13:47;8.60;44.10
60848;DHT22;46681;47.696;9.140;2023-03-01T08:16:16;8.60;44.10
60848;DHT22;46681;47.696;9.140;2023-03-01T08:18:44;8.60;44.00
60848;DHT22;46681;47.696;9.140;2023-03-01T08:21:17;8.60;44.70
60848;DHT22;46681;47.696;9.140;2023-03-01T08:23:43;8.60;44.60
60848;DHT22;46681;47.696;9.140;2023-03-01T08:26:20;8.70;44.50
60848;DHT22;46681;47.696;9.140;2023-03-01T08:28:53;8.60;44.40
60848;DHT22;46681;47.696;9.140;2023-03-01T08:31:24;8.70;44.30
60848;DHT22;46681;47.696;9.140;2023-03-01T08:33:54;8.60;44.20
60848;DHT22;46681;47.696;9.140;2023-03-01T08:36:39;8.70;44.20
60848;DHT22;46681;47.696;9.140;2023-03-01T08:39:15;8.70;44.20
60848;DHT22;46681;47.696;9.140;2023-03-01T08:41:51;8.70;44.20
60848;DHT22;46681;47.696;9.140;2023-03-01T08:44:20;8.70;44.20
60848;DHT22;46681;47.696;9.140;2023-03-01T08:46:53;8.70;44.10
60848;DHT22;46681;47.696;9.140;2023-03-01T08:49:20;8.70;44.10
60848;DHT22;46681;47.696;9.140;2023-03-01T08:51:51;8.70;44.10
60848;DHT22;46681;47.696;9.140;2023-03-01T08:54:26;8.70;44.00
60848;DHT22;46681;47.696;9.140;2023-03-01T08:56:53;8.80;44.00
60848;DHT22;46681;47.696;9.140;2023-03-01T08:59:21;8.80;44.10
60848;DHT22;46681;47.696;9.140;2023-03-01T09:01:51;8.80;44.10
60848;DHT22;46681;47.696;9.140;2023-03-01T09:04:18;8.80;44.10
60848;DHT22;46681;47.696;9.140;2023-03-01T09:07:17;8.80;44.00
60848;DHT22;46681;47.696;9.140;2023-03-01T09:10:04;8.80;44.00
60848;DHT22;46681;47.696;9.140;2023-03-01T09:12:38;8.80;44.00
60848;DHT22;46681;47.696;9.140;2023-03-01T09:15:09;8.80;44.00
60848;DHT22;46681;47.696;9.140;2023-03-01T09:17:37;8.80;44.00
60848;DHT22;46681;47.696;9.140;2023-03-01T09:20:06;8.80;44.00
60848;DHT22;46681;47.696;9.140;2023-03-01T09:22:43;8.80;44.00
60848;DHT22;46681;47.696;9.140;2023-03-01T09:25:08;8.80;44.00
60848;DHT22;46681;47.696;9.140;2023-03-01T09:27:34;8.80;44.00
60848;DHT22;46681;47.696;9.140;2023-03-01T09:30:10;8.80;44.00
60848;DHT22;46681;47.696;9.140;2023-03-01T09:32:36;8.90;44.00
60848;DHT22;46681;47.696;9.140;2023-03-01T09:35:04;8.90;44.00
60848;DHT22;46681;47.696;9.140;2023-03-01T09:37:35;8.90;44.00
60848;DHT22;46681;47.696;9.140;2023-03-01T09:40:08;8.90;44.00
60848;DHT22;46681;47.696;9.140;2023-03-01T09:43:01;8.90;44.00
60848;DHT22;46681;47.696;9.140;2023-03-01T09:45:37;8.90;43.90
60848;DHT22;46681;47.696;9.140;2023-03-01T09:48:26;8.90;44.00
60848;DHT22;46681;47.696;9.140;2023-03-01T09:51:02;8.90;44.00
60848;DHT22;46681;47.696;9.140;2023-03-01T09:53:37;8.90;44.00
60848;DHT22;46681;47.696;9.140;2023-03-01T09:59:02;8.90;44.00
60848;DHT22;46681;47.696;9.140;2023-03-01T10:04:54;8.90;44.00
60848;DHT22;46681;47.696;9.140;2023-03-01T10:07:43;8.90;44.00
60848;DHT22;46681;47.696;9.140;2023-03-01T10:10:38;8.90;44.00
60848;DHT22;46681;47.696;9.140;2023-03-01T10:16:28;8.90;43.90
60848;DHT22;46681;47.696;9.140;2023-03-01T10:19:02;9.00;43.90
60848;DHT22;46681;47.696;9.140;2023-03-01T10:21:35;9.00;43.90
60848;DHT22;46681;47.696;9.140;2023-03-01T10:24:15;9.00;43.90
60848;DHT22;46681;47.696;9.140;2023-03-01T10:26:54;9.00;43.90
60848;DHT22;46681;47.696;9.140;2023-03-01T10:29:34;9.00;43.80
60848;DHT22;46681;47.696;9.140;2023-03-01T10:32:13;9.10;43.80
60848;DHT22;46681;47.696;9.140;2023-03-01T10:34:52;9.10;43.80
60848;DHT22;46681;47.696;9.140;2023-03-01T10:37:21;9.10;43.80
60848;DHT22;46681;47.696;9.140;2023-03-01T10:42:32;9.10;43.80
60848;DHT22;46681;47.696;9.140;2023-03-01T10:48:15;9.10;43.80
60848;DHT22;46681;47.696;9.140;2023-03-01T10:51:17;9.10;43.80
60848;DHT22;46681;47.696;9.140;2023-03-01T10:53:55;9.20;43.90
60848;DHT22;46681;47.696;9.140;2023-03-01T10:56:28;9.10;43.80
60848;DHT22;46681;47.696;9.140;2023-03-01T10:59:42;9.20;43.90
60848;DHT22;46681;47.696;9.140;2023-03-01T11:02:34;9.20;43.90
60848;DHT22;46681;47.696;9.140;2023-03-01T11:05:24;9.20;43.80
60848;DHT22;46681;47.696;9.140;2023-03-01T11:07:53;9.20;44.10
60848;DHT22;46681;47.696;9.140;2023-03-01T11:10:32;9.20;43.80
60848;DHT22;46681;47.696;9.140;2023-03-01T11:15:41;9.20;43.80
60848;DHT22;46681;47.696;9.140;2023-03-01T11:18:31;9.20;43.80
60848;DHT22;46681;47.696;9.140;2023-03-01T11:21:16;9.20;43.80
60848;DHT22;46681;47.696;9.140;2023-03-01T11:23:59;9.20;43.70
60848;DHT22;46681;47.696;9.140;2023-03-01T11:26:41;9.30;43.80
60848;DHT22;46681;47.696;9.140;2023-03-01T11:29:25;9.30;43.70
60848;DHT22;46681;47.696;9.140;2023-03-01T11:32:09;9.30;43.70
60848;DHT22;46681;47.696;9.140;2023-03-01T11:35:04;9.30;44.90
60848;DHT22;46681;47.696;9.140;2023-03-01T11:40:45;9.60;45.80
60848;DHT22;46681;47.696;9.140;2023-03-01T12:03:09;9.50;44.10
60848;DHT22;46681;47.696;9.140;2023-03-01T12:11:51;9.50;43.90
60848;DHT22;46681;47.696;9.140;2023-03-01T12:26:38;9.50;43.70
60848;DHT22;46681;47.696;9.140;2023-03-01T12:29:38;9.50;43.70
60848;DHT22;46681;47.696;9.140;2023-03-01T12:41:20;9.50;43.60
60848;DHT22;46681;47.696;9.140;2023-03-01T12:53:01;9.60;43.70
60848;DHT22;46681;47.696;9.140;2023-03-01T12:55:43;9.60;43.60
60848;DHT22;46681;47.696;9.140;2023-03-01T13:07:30;9.60;43.50
60848;DHT22;46681;47.696;9.140;2023-03-01T13:10:33;9.60;43.50
60848;DHT22;46681;47.696;9.140;2023-03-01T13:19:28;9.60;43.50
60848;DHT22;46681;47.696;9.140;2023-03-01T13:25:33;9.60;43.40
60848;DHT22;46681;47.696;9.140;2023-03-01T13:34:01;9.60;43.40
60848;DHT22;46681;47.696;9.140;2023-03-01T13:39:30;9.60;43.40
60848;DHT22;46681;47.696;9.140;2023-03-01T13:47:54;9.60;43.40
60848;DHT22;46681;47.696;9.140;2023-03-01T13:50:45;9.70;43.30
60848;DHT22;46681;47.696;9.140;2023-03-01T13:53:22;9.70;43.30
60848;DHT22;46681;47.696;9.140;2023-03-01T13:56:02;9.70;43.40
60848;DHT22;46681;47.696;9.140;2023-03-01T13:58:59;9.70;43.30
60848;DHT22;46681;47.696;9.140;2023-03-01T14:04:55;9.80;45.30
60848;DHT22;46681;47.696;9.140;2023-03-01T14:07:25;9.80;43.80
60848;DHT22;46681;47.696;9.140;2023-03-01T14:10:00;9.80;43.80
60848;DHT22;46681;47.696;9.140;2023-03-01T14:13:00;9.80;43.80
60848;DHT22;46681;47.696;9.140;2023-03-01T14:15:57;9.80;43.70
60848;DHT22;46681;47.696;9.140;2023-03-01T14:18:39;9.80;43.60
60848;DHT22;46681;47.696;9.140;2023-03-01T14:21:19;9.70;43.60
60848;DHT22;46681;47.696;9.140;2023-03-01T14:23:44;9.80;44.90
60848;DHT22;46681;47.696;9.140;2023-03-01T14:26:21;9.80;44.10
60848;DHT22;46681;47.696;9.140;2023-03-01T14:28:52;9.80;43.90
60848;DHT22;46681;47.696;9.140;2023-03-01T14:31:39;9.80;43.80
60848;DHT22;46681;47.696;9.140;2023-03-01T14:34:22;9.70;43.70
60848;DHT22;46681;47.696;9.140;2023-03-01T14:36:52;9.80;43.70
60848;DHT22;46681;47.696;9.140;2023-03-01T14:39:23;9.70;43.60
60848;DHT22;46681;47.696;9.140;2023-03-01T14:41:49;9.70;43.60
60848;DHT22;46681;47.696;9.140;2023-03-01T14:44:26;9.70;43.60
60848;DHT22;46681;47.696;9.140;2023-03-01T14:46:55;9.70;43.60
60848;DHT22;46681;47.696;9.140;2023-03-01T14:49:31;9.70;43.80
60848;DHT22;46681;47.696;9.140;2023-03-01T14:52:06;9.70;43.60
60848;DHT22;46681;47.696;9.140;2023-03-01T14:54:53;9.70;43.60
60848;DHT22;46681;47.696;9.140;2023-03-01T14:57:29;9.70;43.60
60848;DHT22;46681;47.696;9.140;2023-03-01T14:59:58;9.70;43.60
60848;DHT22;46681;47.696;9.140;2023-03-01T15:02:27;9.70;43.50
60848;DHT22;46681;47.696;9.140;2023-03-01T15:05:05;9.60;43.50
60848;DHT22;46681;47.696;9.140;2023-03-01T15:07:47;9.60;43.60
60848;DHT22;46681;47.696;9.140;2023-03-01T15:10:29;9.60;43.50
60848;DHT22;46681;47.696;9.140;2023-03-01T15:13:32;9.60;43.50
60848;DHT22;46681;47.696;9.140;2023-03-01T15:16:22;9.60;43.50
60848;DHT22;46681;47.696;9.140;2023-03-01T15:19:01;9.60;43.50
60848;DHT22;46681;47.696;9.140;2023-03-01T15:21:56;9.60;43.40
60848;DHT22;46681;47.696;9.140;2023-03-01T15:24:35;9.60;43.50
60848;DHT22;46681;47.696;9.140;2023-03-01T15:27:02;9.60;43.40
60848;DHT22;46681;47.696;9.140;2023-03-01T15:29:50;9.60;43.40
60848;DHT22;46681;47.696;9.140;2023-03-01T15:32:33;9.60;43.40
60848;DHT22;46681;47.696;9.140;2023-03-01T15:41:47;9.60;43.50
60848;DHT22;46681;47.696;9.140;2023-03-01T15:44:31;9.60;43.70
60848;DHT22;46681;47.696;9.140;2023-03-01T15:50:01;9.50;43.40
60848;DHT22;46681;47.696;9.140;2023-03-01T15:52:41;9.50;43.50
60848;DHT22;46681;47.696;9.140;2023-03-01T15:55:25;9.50;43.40
60848;DHT22;46681;47.696;9.140;2023-03-01T15:58:04;9.50;43.40
60848;DHT22;46681;47.696;9.140;2023-03-01T16:00:43;9.60;44.20
60848;DHT22;46681;47.696;9.140;2023-03-01T16:03:17;9.60;43.70
60848;DHT22;46681;47.696;9.140;2023-03-01T16:05:54;9.60;43.70
60848;DHT22;46681;47.696;9.140;2023-03-01T16:08:26;9.60;43.60
60848;DHT22;46681;47.696;9.140;2023-03-01T16:10:56;9.60;43.60
60848;DHT22;46681;47.696;9.140;2023-03-01T16:13:23;9.60;43.50
60848;DHT22;46681;47.696;9.140;2023-03-01T16:15:53;9.60;43.50
60848;DHT22;46681;47.696;9.140;2023-03-01T16:18:19;9.60;43.50
60848;DHT22;46681;47.696;9.140;2023-03-01T16:20:52;9.60;43.50
60848;DHT22;46681;47.696;9.140;2023-03-01T16:23:18;9.50;43.50
60848;DHT22;46681;47.696;9.140;2023-03-01T16:25:45;9.50;43.40
60848;DHT22;46681;47.696;9.140;2023-03-01T16:28:12;9.50;43.40
60848;DHT22;46681;47.696;9.140;2023-03-01T16:30:44;9.50;43.50
60848;DHT22;46681;47.696;9.140;2023-03-01T16:33:20;9.50;43.50
60848;DHT22;46681;47.696;9.140;2023-03-01T16:35:50;9.50;43.50
60848;DHT22;46681;47.696;9.140;2023-03-01T16:38:21;9.40;43.50
60848;DHT22;46681;47.696;9.140;2023-03-01T16:40:50;9.40;43.50
60848;DHT22;46681;47.696;9.140;2023-03-01T16:43:23;9.40;43.50
60848;DHT22;46681;47.696;9.140;2023-03-01T16:45:49;9.30;43.50
60848;DHT22;46681;47.696;9.140;2023-03-01T16:48:15;9.30;43.60
60848;DHT22;46681;47.696;9.140;2023-03-01T16:50:56;9.30;43.60
60848;DHT22;46681;47.696;9.140;2023-03-01T16:53:23;9.20;43.60
60848;DHT22;46681;47.696;9.140;2023-03-01T16:56:21;9.20;43.50
60848;DHT22;46681;47.696;9.140;2023-03-01T16:58:49;9.20;43.60
60848;DHT22;46681;47.696;9.140;2023-03-01T17:01:19;9.20;43.60
60848;DHT22;46681;47.696;9.140;2023-03-01T17:03:51;9.20;44.10
60848;DHT22;46681;47.696;9.140;2023-03-01T17:06:28;9.10;43.70
60848;DHT22;46681;47.696;9.140;2023-03-01T17:09:00;9.10;43.70
60848;DHT22;46681;47.696;9.140;2023-03-01T17:11:40;9.10;44.50
60848;DHT22;46681;47.696;9.140;2023-03-01T17:14:17;9.10;46.60
60848;DHT22;46681;47.696;9.140;2023-03-01T17:16:46;9.20;46.80
60848;DHT22;46681;47.696;9.140;2023-03-01T17:19:13;9.20;46.10
60848;DHT22;46681;47.696;9.140;2023-03-01T17:21:38;9.20;45.30
60848;DHT22;46681;47.696;9.140;2023-03-01T17:24:23;9.20;46.50
60848;DHT22;46681;47.696;9.140;2023-03-01T17:26:59;9.20;45.30
60848;DHT22;46681;47.696;9.140;2023-03-01T17:29:32;9.20;45.80
60848;DHT22;46681;47.696;9.140;2023-03-01T17:31:58;9.10;45.00
60848;DHT22;46681;47.696;9.140;2023-03-01T17:34:25;9.10;44.80
60848;DHT22;46681;47.696;9.140;2023-03-01T17:36:53;9.10;44.70
60848;DHT22;46681;47.696;9.140;2023-03-01T17:39:33;9.00;44.60
60848;DHT22;46681;47.696;9.140;2023-03-01T17:42:02;9.00;44.50
60848;DHT22;46681;47.696;9.140;2023-03-01T17:44:38;9.00;44.50
60848;DHT22;46681;47.696;9.140;2023-03-01T17:47:23;9.00;44.60
60848;DHT22;46681;47.696;9.140;2023-03-01T17:49:49;9.00;44.50
60848;DHT22;46681;47.696;9.140;2023-03-01T17:52:15;9.00;44.50
60848;DHT22;46681;47.696;9.140;2023-03-01T17:54:44;9.00;44.50
60848;DHT22;46681;47.696;9.140;2023-03-01T17:57:22;9.00;44.40
60848;DHT22;46681;47.696;9.140;2023-03-01T17:59:52;9.00;44.40
60848;DHT22;46681;47.696;9.140;2023-03-01T18:02:22;9.00;45.00
60848;DHT22;46681;47.696;9.140;2023-03-01T18:04:51;9.00;44.50
60848;DHT22;46681;47.696;9.140;2023-03-01T18:07:28;9.00;44.40
60848;DHT22;46681;47.696;9.140;2023-03-01T18:09:58;9.00;44.40
60848;DHT22;46681;47.696;9.140;2023-03-01T18:12:30;9.00;44.40
60848;DHT22;46681;47.696;9.140;2023-03-01T18:15:05;9.00;44.30
60848;DHT22;46681;47.696;9.140;2023-03-01T18:17:31;9.00;44.20
60848;DHT22;46681;47.696;9.140;2023-03-01T18:20:02;9.00;44.30
60848;DHT22;46681;47.696;9.140;2023-03-01T18:22:35;8.90;44.30
60848;DHT22;46681;47.696;9.140;2023-03-01T18:25:12;8.90;44.20
60848;DHT22;46681;47.696;9.140;2023-03-01T18:33:51;9.00;44.20
60848;DHT22;46681;47.696;9.140;2023-03-01T18:36:24;9.00;44.20
60848;DHT22;46681;47.696;9.140;2023-03-01T18:38:53;9.00;44.20
60848;DHT22;46681;47.696;9.140;2023-03-01T18:41:27;9.00;44.20
60848;DHT22;46681;47.696;9.140;2023-03-01T18:43:55;9.00;44.90